Time;durP1;ratioP1;P1;durP2;ratioP2;P2;SDS_P1;SDS_P2;PMS_P1;PMS_P2;Temp;Humidity;BMP_temperature;BMP_pressure;BME280_temperature;BME280_humidity;BME280_pressure;Samples;Min_cycle;Max_cycle;Signal;HPM_P1;HPM_P2
2022/10/01 00:01:15;;;;;;;4.17;3.00;;;;;;;;;;4962057;28;20228;-31
2022/10/01 00:03:42;;;;;;;5.87;3.80;;;;;;;;;;4951175;28;20249;-34
2022/10/01 00:06:11;;;;;;;5.30;3.50;;;;;;;;;;4954390;28;20219;-31
2022/10/01 00:08:39;;;;;;;4.83;4.00;;;;;;;;;;4964837;28;20209;-31
2022/10/01 00:11:11;;;;;;;5.00;4.17;;;;;;;;;;4946660;28;20229;-30
2022/10/01 00:13:38;;;;;;;6.70;4.83;;;;;;;;;;4955930;28;20198;-29
2022/10/01 00:16:07;;;;;;;6.53;4.50;;;;;;;;;;4967591;28;20201;-29
2022/10/01 00:18:37;;;;;;;5.60;4.10;;;;;;;;;;4946331;28;20297;-31
2022/10/01 00:21:07;;;;;;;4.20;3.30;;;;;;;;;;4942439;28;20229;-31
2022/10/01 00:23:34;;;;;;;5.67;3.80;;;;;;;;;;4971781;28;20224;-30
2022/10/01 00:26:10;;;;;;;3.67;3.37;;;;;;;;;;4952986;28;20210;-33
2022/10/01 00:28:37;;;;;;;4.57;3.73;;;;;;;;;;4955723;28;20223;-32
2022/10/01 00:31:04;;;;;;;4.93;4.03;;;;;;;;;;4969150;28;20237;-31
2022/10/01 00:33:31;;;;;;;4.67;3.53;;;;;;;;;;4943604;28;20229;-29
2022/10/01 00:36:00;;;;;;;4.80;3.67;;;;;;;;;;4949888;28;20209;-31
2022/10/01 00:38:28;;;;;;;5.90;4.87;;;;;;;;;;4968602;28;20217;-32
2022/10/01 00:40:55;;;;;;;5.73;4.77;;;;;;;;;;4951616;28;20237;-30
2022/10/01 00:43:23;;;;;;;4.13;3.73;;;;;;;;;;4938102;28;20324;-32
2022/10/01 00:45:50;;;;;;;4.90;4.40;;;;;;;;;;4957002;28;20213;-30
2022/10/01 00:48:18;;;;;;;5.20;4.53;;;;;;;;;;4942193;28;20209;-33
2022/10/01 00:50:47;;;;;;;6.23;4.97;;;;;;;;;;4957559;28;20225;-33
2022/10/01 00:53:17;;;;;;;4.47;3.70;;;;;;;;;;4959584;28;20220;-29
2022/10/01 00:55:45;;;;;;;4.90;3.57;;;;;;;;;;4947406;28;20206;-32
2022/10/01 00:58:14;;;;;;;4.73;3.57;;;;;;;;;;4948667;28;20337;-31
2022/10/01 01:00:42;;;;;;;4.10;3.67;;;;;;;;;;4955601;28;20224;-32
2022/10/01 01:03:10;;;;;;;5.30;4.33;;;;;;;;;;4943427;28;20201;-33
2022/10/01 01:05:38;;;;;;;5.43;4.63;;;;;;;;;;4953272;28;20202;-32
2022/10/01 01:08:05;;;;;;;7.07;3.83;;;;;;;;;;4964323;28;20219;-34
2022/10/01 01:10:37;;;;;;;4.70;3.63;;;;;;;;;;4951873;28;20735;-32
2022/10/01 01:13:08;;;;;;;5.30;3.60;;;;;;;;;;4948312;28;20212;-31
2022/10/01 01:15:37;;;;;;;7.43;3.77;;;;;;;;;;4954069;28;20208;-32
2022/10/01 01:18:08;;;;;;;5.80;4.20;;;;;;;;;;4947453;28;20228;-31
2022/10/01 01:20:47;;;;;;;4.33;3.93;;;;;;;;;;4942304;28;20232;-34
2022/10/01 01:23:35;;;;;;;6.80;3.90;;;;;;;;;;4965156;28;20213;-31
2022/10/01 01:26:11;;;;;;;4.47;3.90;;;;;;;;;;4946315;28;20214;-31
2022/10/01 01:28:43;;;;;;;5.23;3.73;;;;;;;;;;4941626;29;20218;-33
2022/10/01 01:31:13;;;;;;;6.03;3.47;;;;;;;;;;4933228;29;20229;-32
2022/10/01 01:33:41;;;;;;;6.23;4.10;;;;;;;;;;4947168;29;20225;-31
2022/10/01 01:36:10;;;;;;;5.50;4.30;;;;;;;;;;4935475;28;20213;-32
2022/10/01 01:38:40;;;;;;;5.37;4.00;;;;;;;;;;4933933;29;20228;-30
2022/10/01 01:41:09;;;;;;;5.50;3.73;;;;;;;;;;4932860;29;20254;-33
2022/10/01 01:43:39;;;;;;;5.37;3.83;;;;;;;;;;4940093;28;20236;-31
2022/10/01 01:46:10;;;;;;;4.13;3.73;;;;;;;;;;4950026;28;20205;-33
2022/10/01 01:48:38;;;;;;;5.33;3.20;;;;;;;;;;4952000;29;20253;-34
2022/10/01 01:51:08;;;;;;;4.93;4.10;;;;;;;;;;4944911;28;20226;-33
2022/10/01 01:53:36;;;;;;;4.90;3.97;;;;;;;;;;4953181;29;20236;-30
2022/10/01 01:56:03;;;;;;;5.23;3.37;;;;;;;;;;4947707;29;20219;-31
2022/10/01 01:58:33;;;;;;;3.73;3.43;;;;;;;;;;4938341;29;20198;-31
2022/10/01 02:01:00;;;;;;;5.77;3.73;;;;;;;;;;4931997;29;20715;-33
2022/10/01 02:03:29;;;;;;;4.17;3.77;;;;;;;;;;4933956;29;20210;-30
2022/10/01 02:06:01;;;;;;;5.37;3.93;;;;;;;;;;4949071;29;20205;-32
2022/10/01 02:08:35;;;;;;;6.30;4.10;;;;;;;;;;4952836;28;20219;-31
2022/10/01 02:11:15;;;;;;;7.53;4.80;;;;;;;;;;4950531;28;20233;-32
2022/10/01 02:13:47;;;;;;;6.63;4.57;;;;;;;;;;4945720;29;20205;-30
2022/10/01 02:16:17;;;;;;;5.80;4.27;;;;;;;;;;4939797;28;20206;-33
2022/10/01 02:18:49;;;;;;;4.80;4.30;;;;;;;;;;4948438;29;20259;-32
2022/10/01 02:21:20;;;;;;;4.77;3.67;;;;;;;;;;4952136;28;20288;-30
2022/10/01 02:23:49;;;;;;;6.97;5.07;;;;;;;;;;4952338;28;20224;-32
2022/10/01 02:26:18;;;;;;;6.47;4.47;;;;;;;;;;4942336;29;20281;-30
2022/10/01 02:28:47;;;;;;;6.07;4.40;;;;;;;;;;4935361;29;20216;-30
2022/10/01 02:31:16;;;;;;;6.30;4.00;;;;;;;;;;4941644;29;20229;-31
2022/10/01 02:33:44;;;;;;;5.07;3.73;;;;;;;;;;4937301;28;20206;-33
2022/10/01 02:36:13;;;;;;;4.57;4.03;;;;;;;;;;4940016;29;20240;-31
2022/10/01 02:38:42;;;;;;;6.40;4.30;;;;;;;;;;4933065;29;20225;-33
2022/10/01 02:41:10;;;;;;;7.00;4.03;;;;;;;;;;4932845;29;20337;-30
2022/10/01 02:43:39;;;;;;;6.93;4.60;;;;;;;;;;4948394;29;20297;-34
2022/10/01 02:46:12;;;;;;;5.07;4.00;;;;;;;;;;4941062;29;20205;-34
2022/10/01 02:48:39;;;;;;;5.40;4.47;;;;;;;;;;4942486;29;20250;-35
2022/10/01 02:51:15;;;;;;;6.00;4.17;;;;;;;;;;4933993;29;20229;-32
2022/10/01 02:53:45;;;;;;;8.93;4.60;;;;;;;;;;4952217;29;20213;-31
2022/10/01 02:57:21;;;;;;;5.87;4.13;;;;;;;;;;4948451;29;20213;-32
2022/10/01 02:59:00;;;;;;;4.70;3.97;;;;;;;;;;4939261;29;20296;-31
2022/10/01 03:01:27;;;;;;;4.90;4.17;;;;;;;;;;4940507;29;20229;-32
2022/10/01 03:03:54;;;;;;;3.80;3.27;;;;;;;;;;4940871;29;20209;-31
2022/10/01 03:06:21;;;;;;;5.07;4.10;;;;;;;;;;4943756;29;20201;-31
2022/10/01 03:08:49;;;;;;;5.27;3.97;;;;;;;;;;4952001;28;20208;-30
2022/10/01 03:11:17;;;;;;;8.47;4.20;;;;;;;;;;4946250;28;20232;-31
2022/10/01 03:13:44;;;;;;;6.13;4.10;;;;;;;;;;4951412;28;20574;-32
2022/10/01 03:16:11;;;;;;;6.40;3.53;;;;;;;;;;4948798;29;20296;-32
2022/10/01 03:18:38;;;;;;;7.13;4.00;;;;;;;;;;4944485;28;20219;-33
2022/10/01 03:21:05;;;;;;;6.10;4.27;;;;;;;;;;4941645;28;20225;-32
2022/10/01 03:23:32;;;;;;;5.67;4.23;;;;;;;;;;4932547;29;20223;-30
2022/10/01 03:26:01;;;;;;;6.83;4.37;;;;;;;;;;4932439;29;20253;-32
2022/10/01 03:28:28;;;;;;;6.80;4.33;;;;;;;;;;4931514;29;20217;-32
2022/10/01 03:31:05;;;;;;;6.33;4.50;;;;;;;;;;4932542;29;20233;-33
2022/10/01 03:33:32;;;;;;;6.03;3.80;;;;;;;;;;4931912;29;20214;-31
2022/10/01 03:35:59;;;;;;;5.60;3.97;;;;;;;;;;4939622;29;20203;-29
2022/10/01 03:40:55;;;;;;;5.07;3.90;;;;;;;;;;4940814;29;20313;-42
2022/10/01 03:43:25;;;;;;;5.83;3.77;;;;;;;;;;4948806;29;20212;-45
2022/10/01 03:45:53;;;;;;;4.40;4.00;;;;;;;;;;4951036;29;20224;-45
2022/10/01 03:48:20;;;;;;;6.10;4.30;;;;;;;;;;4937028;29;20214;-44
2022/10/01 03:50:53;;;;;;;8.23;4.07;;;;;;;;;;4947132;29;20225;-46
2022/10/01 03:53:20;;;;;;;6.33;3.70;;;;;;;;;;4951500;29;20224;-43
2022/10/01 03:55:47;;;;;;;5.80;4.60;;;;;;;;;;4946367;29;20223;-44
2022/10/01 03:58:14;;;;;;;6.33;4.47;;;;;;;;;;4950775;28;20213;-39
2022/10/01 04:00:44;;;;;;;3.93;3.53;;;;;;;;;;4950659;29;20229;-44
2022/10/01 04:03:11;;;;;;;4.77;3.90;;;;;;;;;;4941270;29;20260;-42
2022/10/01 04:05:38;;;;;;;5.83;3.80;;;;;;;;;;4945472;29;20309;-44
2022/10/01 04:08:05;;;;;;;7.33;4.33;;;;;;;;;;4951535;29;20205;-45
2022/10/01 04:10:32;;;;;;;5.57;4.20;;;;;;;;;;4948465;29;20611;-43
2022/10/01 04:13:00;;;;;;;4.10;3.70;;;;;;;;;;4943038;29;20563;-44
2022/10/01 04:15:27;;;;;;;5.70;4.57;;;;;;;;;;4950344;29;20201;-40
2022/10/01 04:17:55;;;;;;;6.63;3.83;;;;;;;;;;4947236;29;20290;-42
2022/10/01 04:20:22;;;;;;;4.50;3.57;;;;;;;;;;4950208;29;20256;-45
2022/10/01 04:22:49;;;;;;;5.80;3.87;;;;;;;;;;4951555;29;20216;-45
2022/10/01 04:25:17;;;;;;;5.87;4.37;;;;;;;;;;4940125;29;20322;-44
2022/10/01 04:27:54;;;;;;;4.40;3.77;;;;;;;;;;4946647;29;20219;-43
2022/10/01 04:30:22;;;;;;;4.53;3.70;;;;;;;;;;4950751;29;20228;-45
2022/10/01 04:32:49;;;;;;;4.00;3.60;;;;;;;;;;4940958;29;20338;-44
2022/10/01 04:35:17;;;;;;;3.73;3.43;;;;;;;;;;4950199;29;20209;-44
2022/10/01 04:37:44;;;;;;;5.23;4.67;;;;;;;;;;4951089;28;20209;-43
2022/10/01 04:40:12;;;;;;;6.60;4.40;;;;;;;;;;4948588;29;20244;-45
2022/10/01 04:42:40;;;;;;;6.23;4.67;;;;;;;;;;4953998;29;20209;-46
2022/10/01 04:45:08;;;;;;;6.97;4.30;;;;;;;;;;4953722;29;20256;-45
2022/10/01 04:47:35;;;;;;;4.13;3.70;;;;;;;;;;4944776;29;20214;-40
2022/10/01 04:50:02;;;;;;;4.83;4.13;;;;;;;;;;4945447;29;20236;-44
2022/10/01 04:52:31;;;;;;;5.87;4.87;;;;;;;;;;4954350;29;20208;-43
2022/10/01 04:54:58;;;;;;;4.70;3.67;;;;;;;;;;4950338;29;20221;-44
2022/10/01 04:57:25;;;;;;;6.77;4.70;;;;;;;;;;4948677;29;20211;-45
2022/10/01 04:59:52;;;;;;;6.80;4.83;;;;;;;;;;4953803;29;20226;-40
2022/10/01 05:02:20;;;;;;;4.97;4.47;;;;;;;;;;4946846;29;20209;-42
2022/10/01 05:04:47;;;;;;;6.37;3.93;;;;;;;;;;4949409;29;20221;-44
2022/10/01 05:07:14;;;;;;;5.83;4.40;;;;;;;;;;4953502;29;20301;-43
2022/10/01 05:09:42;;;;;;;6.03;4.40;;;;;;;;;;4949140;29;20226;-44
2022/10/01 05:12:10;;;;;;;6.27;4.17;;;;;;;;;;4944601;29;20220;-44
2022/10/01 05:14:37;;;;;;;4.20;3.80;;;;;;;;;;4953634;29;20208;-43
2022/10/01 05:17:05;;;;;;;4.60;4.10;;;;;;;;;;4949580;29;20209;-42
2022/10/01 05:19:33;;;;;;;4.27;3.37;;;;;;;;;;4938877;29;20233;-43
2022/10/01 05:22:00;;;;;;;5.60;4.17;;;;;;;;;;4953957;29;20205;-43
2022/10/01 05:24:27;;;;;;;6.20;4.63;;;;;;;;;;4953857;29;22223;-40
2022/10/01 05:26:56;;;;;;;4.30;3.90;;;;;;;;;;4946634;28;20320;-39
2022/10/01 05:29:24;;;;;;;4.60;4.10;;;;;;;;;;4953845;29;20197;-38
2022/10/01 05:31:51;;;;;;;6.53;4.07;;;;;;;;;;4944996;29;20217;-43
2022/10/01 05:34:18;;;;;;;6.00;4.00;;;;;;;;;;4945559;29;20216;-44
2022/10/01 05:36:45;;;;;;;5.57;4.33;;;;;;;;;;4953226;29;20245;-47
2022/10/01 05:39:13;;;;;;;7.87;4.80;;;;;;;;;;4953170;29;20213;-42
2022/10/01 05:41:40;;;;;;;5.33;4.47;;;;;;;;;;4943846;28;20217;-43
2022/10/01 05:44:08;;;;;;;5.33;4.50;;;;;;;;;;4944261;29;20268;-41
2022/10/01 05:46:35;;;;;;;5.93;4.37;;;;;;;;;;4945611;29;20244;-44
2022/10/01 05:49:03;;;;;;;4.90;4.33;;;;;;;;;;4950689;29;20214;-40
2022/10/01 05:51:30;;;;;;;7.20;3.97;;;;;;;;;;4955404;28;20232;-39
2022/10/01 05:53:59;;;;;;;4.30;3.90;;;;;;;;;;4955548;29;20213;-43
2022/10/01 05:56:27;;;;;;;4.27;3.83;;;;;;;;;;4950936;29;20201;-38
2022/10/01 05:58:54;;;;;;;6.10;4.60;;;;;;;;;;4955148;29;20241;-41
2022/10/01 06:01:22;;;;;;;6.33;4.20;;;;;;;;;;4952936;28;20289;-42
2022/10/01 06:03:51;;;;;;;5.17;3.97;;;;;;;;;;4939644;29;20210;-41
2022/10/01 06:06:21;;;;;;;8.33;4.17;;;;;;;;;;4947423;29;20217;-40
2022/10/01 06:08:48;;;;;;;5.80;4.50;;;;;;;;;;4955227;29;20452;-44
2022/10/01 06:11:16;;;;;;;6.57;4.50;;;;;;;;;;4951967;29;20231;-42
2022/10/01 06:13:44;;;;;;;4.40;3.83;;;;;;;;;;4949700;29;20202;-44
2022/10/01 06:16:11;;;;;;;7.40;4.63;;;;;;;;;;4953012;29;20264;-40
2022/10/01 06:18:39;;;;;;;5.30;3.77;;;;;;;;;;4945797;28;20209;-43
2022/10/01 06:21:07;;;;;;;5.53;4.43;;;;;;;;;;4954883;29;20373;-44
2022/10/01 06:23:34;;;;;;;6.40;4.60;;;;;;;;;;4955236;29;20211;-41
2022/10/01 06:26:02;;;;;;;6.37;4.23;;;;;;;;;;4944650;29;20232;-41
2022/10/01 06:28:29;;;;;;;5.40;4.40;;;;;;;;;;4947721;29;20202;-44
2022/10/01 06:30:56;;;;;;;5.70;4.40;;;;;;;;;;4947723;29;20231;-43
2022/10/01 06:33:23;;;;;;;5.60;4.20;;;;;;;;;;4937858;29;20205;-41
2022/10/01 06:35:52;;;;;;;4.07;3.53;;;;;;;;;;4948619;29;20212;-42
2022/10/01 06:38:20;;;;;;;4.13;3.50;;;;;;;;;;4953228;29;20215;-43
2022/10/01 06:40:51;;;;;;;4.93;4.03;;;;;;;;;;4950856;29;20256;-40
2022/10/01 06:43:18;;;;;;;4.80;4.10;;;;;;;;;;4942166;29;20303;-41
2022/10/01 06:45:45;;;;;;;4.10;3.63;;;;;;;;;;4952183;29;20221;-47
2022/10/01 06:48:14;;;;;;;6.17;4.20;;;;;;;;;;4940856;29;20225;-42
2022/10/01 06:50:42;;;;;;;7.70;4.33;;;;;;;;;;4952229;29;20229;-44
2022/10/01 06:53:11;;;;;;;6.37;5.03;;;;;;;;;;4952879;29;20194;-42
2022/10/01 06:55:39;;;;;;;6.07;4.53;;;;;;;;;;4945417;29;20240;-42
2022/10/01 06:58:09;;;;;;;5.13;4.27;;;;;;;;;;4946581;29;20209;-43
2022/10/01 07:00:37;;;;;;;5.07;3.53;;;;;;;;;;4950395;29;20227;-42
2022/10/01 07:03:05;;;;;;;5.67;4.20;;;;;;;;;;4948760;28;20221;-43
2022/10/01 07:05:32;;;;;;;9.47;5.00;;;;;;;;;;4950461;29;20236;-40
2022/10/01 07:07:59;;;;;;;6.47;4.47;;;;;;;;;;4952391;29;20211;-40
2022/10/01 07:10:28;;;;;;;4.97;4.43;;;;;;;;;;4940615;29;20221;-45
2022/10/01 07:12:55;;;;;;;5.23;3.67;;;;;;;;;;4949257;29;20213;-42
2022/10/01 07:15:22;;;;;;;6.57;4.60;;;;;;;;;;4950932;29;20487;-41
2022/10/01 07:17:51;;;;;;;4.70;4.20;;;;;;;;;;4948791;29;20206;-44
2022/10/01 07:20:19;;;;;;;6.83;5.40;;;;;;;;;;4943332;29;20224;-41
2022/10/01 07:22:46;;;;;;;5.63;4.43;;;;;;;;;;4953071;29;20262;-45
2022/10/01 07:25:14;;;;;;;5.50;4.37;;;;;;;;;;4950051;29;20205;-41
2022/10/01 07:27:42;;;;;;;5.17;4.60;;;;;;;;;;4945679;29;20215;-42
2022/10/01 07:30:10;;;;;;;5.43;4.57;;;;;;;;;;4954048;29;20220;-44
2022/10/01 07:32:37;;;;;;;7.33;4.80;;;;;;;;;;4945955;29;20201;-42
2022/10/01 07:35:05;;;;;;;11.00;5.90;;;;;;;;;;4953646;29;20205;-41
2022/10/01 07:37:32;;;;;;;6.50;4.63;;;;;;;;;;4954413;29;20209;-44
2022/10/01 07:39:59;;;;;;;8.20;4.67;;;;;;;;;;4942511;29;20233;-44
2022/10/01 07:42:27;;;;;;;7.93;5.23;;;;;;;;;;4951334;29;20235;-43
2022/10/01 07:44:55;;;;;;;6.20;5.43;;;;;;;;;;4951195;29;20211;-43
2022/10/01 07:47:22;;;;;;;7.57;4.97;;;;;;;;;;4933896;29;20288;-44
2022/10/01 07:49:50;;;;;;;9.97;4.73;;;;;;;;;;4949915;29;20225;-41
2022/10/01 07:52:17;;;;;;;8.63;5.50;;;;;;;;;;4953399;29;20229;-42
2022/10/01 07:54:46;;;;;;;7.90;4.83;;;;;;;;;;4953947;29;20211;-44
2022/10/01 07:57:14;;;;;;;7.93;5.27;;;;;;;;;;4948625;29;20215;-43
2022/10/01 07:59:41;;;;;;;7.50;4.77;;;;;;;;;;4949105;28;20225;-40
2022/10/01 08:02:14;;;;;;;8.00;4.87;;;;;;;;;;4948456;29;20218;-43
2022/10/01 08:07:27;;;;;;;6.00;5.10;;;;;;;;;;4953815;29;20224;-42
2022/10/01 08:09:54;;;;;;;5.67;4.57;;;;;;;;;;4950872;29;20232;-40
2022/10/01 08:12:21;;;;;;;8.17;4.40;;;;;;;;;;4953739;28;20216;-43
2022/10/01 08:14:48;;;;;;;6.13;4.40;;;;;;;;;;4956690;29;20209;-44
2022/10/01 08:17:16;;;;;;;5.30;4.20;;;;;;;;;;4948500;29;20204;-40
2022/10/01 08:19:43;;;;;;;6.43;4.93;;;;;;;;;;4956947;29;20262;-44
2022/10/01 08:22:11;;;;;;;5.80;4.83;;;;;;;;;;4956815;29;20206;-42
2022/10/01 08:24:38;;;;;;;7.10;4.67;;;;;;;;;;4956917;29;20292;-40
2022/10/01 08:27:06;;;;;;;7.13;5.03;;;;;;;;;;4953922;29;20233;-44
2022/10/01 08:29:33;;;;;;;6.67;4.83;;;;;;;;;;4954960;29;20231;-43
2022/10/01 08:32:00;;;;;;;6.90;4.23;;;;;;;;;;4952568;29;20450;-43
2022/10/01 08:34:30;;;;;;;7.40;4.60;;;;;;;;;;4946287;29;20301;-44
2022/10/01 08:36:57;;;;;;;5.60;4.40;;;;;;;;;;4956261;29;20296;-41
2022/10/01 08:39:24;;;;;;;6.23;4.70;;;;;;;;;;4954927;29;20217;-42
2022/10/01 08:41:54;;;;;;;5.43;4.13;;;;;;;;;;4952485;29;20202;-43
2022/10/01 08:44:26;;;;;;;6.97;4.30;;;;;;;;;;4949119;29;20255;-42
2022/10/01 08:46:56;;;;;;;6.87;4.70;;;;;;;;;;4948798;28;20233;-43
2022/10/01 08:49:27;;;;;;;6.90;5.23;;;;;;;;;;4949061;29;20206;-41
2022/10/01 08:51:58;;;;;;;8.90;5.17;;;;;;;;;;4956385;29;20206;-42
2022/10/01 08:54:28;;;;;;;6.20;5.30;;;;;;;;;;4950946;29;20288;-43
2022/10/01 08:56:56;;;;;;;8.47;5.20;;;;;;;;;;4953754;29;20201;-43
2022/10/01 08:59:29;;;;;;;10.03;6.30;;;;;;;;;;4955194;29;20236;-44
2022/10/01 09:01:57;;;;;;;8.17;5.10;;;;;;;;;;4950516;29;20236;-41
2022/10/01 09:04:25;;;;;;;5.77;4.50;;;;;;;;;;4952306;28;20206;-43
2022/10/01 09:06:55;;;;;;;4.83;4.20;;;;;;;;;;4952633;29;20232;-44
2022/10/01 09:09:39;;;;;;;6.67;4.07;;;;;;;;;;4939553;29;20205;-43
2022/10/01 09:12:16;;;;;;;10.50;5.20;;;;;;;;;;4953638;29;20201;-42
2022/10/01 09:15:01;;;;;;;12.13;4.80;;;;;;;;;;4952473;29;20197;-44
2022/10/01 09:17:37;;;;;;;5.20;3.57;;;;;;;;;;4954479;29;20204;-44
2022/10/01 09:20:11;;;;;;;7.13;3.90;;;;;;;;;;4954260;29;20243;-43
2022/10/01 09:22:39;;;;;;;6.77;3.93;;;;;;;;;;4942808;29;20233;-42
2022/10/01 09:25:20;;;;;;;5.27;4.70;;;;;;;;;;4951922;28;20231;-42
2022/10/01 09:27:47;;;;;;;8.27;5.40;;;;;;;;;;4945217;29;20220;-40
2022/10/01 09:30:15;;;;;;;3.70;2.90;;;;;;;;;;4954278;29;20268;-42
2022/10/01 09:32:45;;;;;;;2.83;2.53;;;;;;;;;;4941420;29;20216;-42
2022/10/01 09:35:19;;;;;;;4.33;2.90;;;;;;;;;;4948844;29;20217;-41
2022/10/01 09:42:53;;;;;;;7.07;3.10;;;;;;;;;;4969882;28;20233;-42
2022/10/01 09:45:21;;;;;;;5.57;2.90;;;;;;;;;;4969165;28;20287;-40
2022/10/01 09:47:51;;;;;;;3.97;2.43;;;;;;;;;;4966514;28;20224;-36
2022/10/01 09:50:20;;;;;;;1.77;1.67;;;;;;;;;;4970897;28;20311;-39
2022/10/01 09:52:48;;;;;;;2.00;1.90;;;;;;;;;;4971862;28;20200;-39
2022/10/01 09:55:23;;;;;;;2.20;2.00;;;;;;;;;;4970408;28;20236;-41
2022/10/01 09:57:54;;;;;;;1.47;1.37;;;;;;;;;;4967930;28;20204;-41
2022/10/01 10:00:22;;;;;;;1.77;1.37;;;;;;;;;;4970051;28;20225;-40
2022/10/01 10:02:50;;;;;;;2.30;1.60;;;;;;;;;;4960973;28;20291;-42
2022/10/01 10:05:18;;;;;;;1.37;1.27;;;;;;;;;;4966816;28;20207;-41
2022/10/01 10:07:46;;;;;;;1.20;1.10;;;;;;;;;;4969231;28;20302;-40
2022/10/01 10:10:19;;;;;;;1.57;1.27;;;;;;;;;;4967179;28;20283;-41
2022/10/01 10:12:47;;;;;;;1.47;1.27;;;;;;;;;;4960517;28;20218;-41
2022/10/01 10:15:17;;;;;;;0.80;0.80;;;;;;;;;;4968866;28;20287;-44
2022/10/01 10:17:49;;;;;;;1.27;1.17;;;;;;;;;;4962575;28;20538;-43
2022/10/01 10:20:21;;;;;;;0.80;0.80;;;;;;;;;;4966452;28;20234;-41
2022/10/01 10:22:48;;;;;;;0.90;0.90;;;;;;;;;;4968074;28;20656;-40
2022/10/01 10:25:21;;;;;;;1.40;0.83;;;;;;;;;;4967477;28;20471;-39
2022/10/01 10:27:54;;;;;;;0.90;0.90;;;;;;;;;;4960141;28;20573;-41
2022/10/01 10:30:24;;;;;;;1.20;1.10;;;;;;;;;;4965648;28;20354;-39
2022/10/01 10:32:51;;;;;;;1.63;1.10;;;;;;;;;;4968835;28;20204;-38
2022/10/01 10:35:21;;;;;;;3.17;1.37;;;;;;;;;;4966448;28;20205;-42
2022/10/01 10:37:50;;;;;;;1.87;0.93;;;;;;;;;;4978333;28;20239;-38
2022/10/01 10:40:19;;;;;;;2.13;0.80;;;;;;;;;;4965620;28;20224;-39
2022/10/01 10:42:49;;;;;;;1.17;1.00;;;;;;;;;;4959829;28;20217;-39
2022/10/01 10:45:18;;;;;;;0.80;0.80;;;;;;;;;;4970441;28;20219;-41
2022/10/01 10:47:49;;;;;;;0.90;0.90;;;;;;;;;;4965196;28;20228;-38
2022/10/01 10:50:28;;;;;;;0.90;0.70;;;;;;;;;;4968194;28;20232;-39
2022/10/01 10:52:58;;;;;;;0.70;0.70;;;;;;;;;;4966742;28;20206;-39
2022/10/01 10:55:29;;;;;;;1.00;1.00;;;;;;;;;;4967981;28;20224;-42
2022/10/01 10:57:56;;;;;;;0.80;0.80;;;;;;;;;;4963941;28;20205;-39
2022/10/01 11:00:24;;;;;;;0.70;0.67;;;;;;;;;;4968756;28;20687;-40
2022/10/01 11:02:55;;;;;;;0.60;0.60;;;;;;;;;;4960652;28;20263;-40
2022/10/01 11:05:23;;;;;;;1.13;0.80;;;;;;;;;;4969182;28;20216;-41
2022/10/01 11:07:53;;;;;;;1.03;0.80;;;;;;;;;;4968439;28;20283;-43
2022/10/01 11:10:28;;;;;;;1.10;1.00;;;;;;;;;;4967331;28;20220;-42
2022/10/01 11:13:09;;;;;;;0.80;0.80;;;;;;;;;;4965153;28;20212;-40
2022/10/01 11:15:48;;;;;;;0.60;0.60;;;;;;;;;;4968394;28;20716;-41
2022/10/01 11:18:31;;;;;;;0.97;0.87;;;;;;;;;;4963832;28;20271;-42
2022/10/01 11:21:05;;;;;;;0.90;0.90;;;;;;;;;;4958797;28;20324;-41
2022/10/01 11:23:44;;;;;;;1.57;0.90;;;;;;;;;;4964775;28;20618;-41
2022/10/01 11:26:18;;;;;;;2.07;0.90;;;;;;;;;;4970443;28;20595;-39
2022/10/01 11:28:52;;;;;;;1.30;0.90;;;;;;;;;;4970441;28;20220;-39
2022/10/01 11:31:24;;;;;;;0.70;0.70;;;;;;;;;;4967181;28;20626;-41
2022/10/01 11:33:58;;;;;;;1.57;1.00;;;;;;;;;;4969937;28;20236;-40
2022/10/01 11:36:29;;;;;;;3.60;0.97;;;;;;;;;;4972532;28;20291;-39
2022/10/01 11:38:58;;;;;;;1.10;1.00;;;;;;;;;;4972671;28;20302;-42
2022/10/01 11:41:29;;;;;;;0.90;0.90;;;;;;;;;;4968234;28;20327;-41
2022/10/01 11:43:58;;;;;;;1.17;0.80;;;;;;;;;;4981634;28;20212;-40
2022/10/01 11:46:36;;;;;;;5.20;1.10;;;;;;;;;;4967421;28;20200;-44
2022/10/01 11:49:16;;;;;;;1.07;0.90;;;;;;;;;;4968280;28;20206;-38
2022/10/01 11:51:45;;;;;;;0.70;0.63;;;;;;;;;;4981398;28;20204;-36
2022/10/01 11:54:14;;;;;;;0.90;0.70;;;;;;;;;;4972977;28;20701;-42
2022/10/01 11:59:31;;;;;;;1.27;1.00;;;;;;;;;;4979580;28;20231;-41
2022/10/01 12:02:03;;;;;;;1.10;1.00;;;;;;;;;;4970578;28;20631;-36
2022/10/01 12:04:34;;;;;;;1.40;1.00;;;;;;;;;;4962439;28;20639;-39
2022/10/01 12:07:05;;;;;;;1.03;0.90;;;;;;;;;;4971425;28;20231;-42
2022/10/01 12:09:36;;;;;;;1.00;0.63;;;;;;;;;;4969177;28;20263;-40
2022/10/01 12:12:06;;;;;;;1.00;1.00;;;;;;;;;;4967000;28;20587;-41
2022/10/01 12:14:37;;;;;;;2.40;0.77;;;;;;;;;;4983442;28;20204;-41
2022/10/01 12:17:09;;;;;;;1.20;1.10;;;;;;;;;;4978043;28;20553;-41
2022/10/01 12:19:39;;;;;;;0.70;0.70;;;;;;;;;;4970680;28;20291;-41
2022/10/01 12:22:11;;;;;;;3.47;2.10;;;;;;;;;;4972910;28;20283;-40
2022/10/01 12:24:41;;;;;;;2.70;1.00;;;;;;;;;;4972326;28;20223;-40
2022/10/01 12:27:20;;;;;;;1.00;1.00;;;;;;;;;;4964853;28;20236;-42
2022/10/01 12:29:51;;;;;;;2.30;1.20;;;;;;;;;;4987953;28;20224;-41
2022/10/01 12:32:26;;;;;;;0.90;0.90;;;;;;;;;;4966889;28;20203;-35
2022/10/01 12:34:59;;;;;;;1.53;0.90;;;;;;;;;;4983695;28;20498;-40
2022/10/01 12:37:33;;;;;;;0.80;0.80;;;;;;;;;;4981101;28;20285;-38
2022/10/01 12:40:16;;;;;;;0.80;0.80;;;;;;;;;;4973921;28;20228;-41
2022/10/01 12:42:54;;;;;;;0.70;0.70;;;;;;;;;;4965009;28;20212;-42
2022/10/01 12:45:26;;;;;;;1.77;1.00;;;;;;;;;;4974433;28;20200;-42
2022/10/01 12:47:57;;;;;;;0.70;0.70;;;;;;;;;;4962107;28;20248;-42
2022/10/01 12:50:35;;;;;;;0.70;0.70;;;;;;;;;;4969969;28;20748;-41
2022/10/01 12:53:19;;;;;;;0.67;0.67;;;;;;;;;;4975647;28;20203;-41
2022/10/01 12:55:55;;;;;;;0.70;0.70;;;;;;;;;;4966197;28;20212;-39
2022/10/01 12:58:32;;;;;;;0.80;0.80;;;;;;;;;;4967980;28;20213;-40
2022/10/01 13:01:02;;;;;;;0.80;0.80;;;;;;;;;;4989677;28;20226;-41
2022/10/01 13:03:36;;;;;;;0.77;0.77;;;;;;;;;;4964925;28;20224;-38
2022/10/01 13:06:14;;;;;;;0.90;0.90;;;;;;;;;;4987717;28;20295;-42
2022/10/01 13:08:47;;;;;;;0.93;0.93;;;;;;;;;;4972927;28;20263;-38
2022/10/01 13:11:25;;;;;;;1.00;1.00;;;;;;;;;;4971575;28;20243;-36
2022/10/01 13:13:52;;;;;;;1.37;1.10;;;;;;;;;;4976165;28;20501;-42
2022/10/01 13:16:22;;;;;;;1.00;1.00;;;;;;;;;;4970738;28;20268;-42
2022/10/01 13:18:54;;;;;;;0.80;0.80;;;;;;;;;;4966278;28;20225;-42
2022/10/01 13:21:28;;;;;;;1.53;0.97;;;;;;;;;;4965867;28;20252;-42
2022/10/01 13:23:58;;;;;;;0.73;0.73;;;;;;;;;;4973782;28;20213;-40
2022/10/01 13:26:29;;;;;;;0.70;0.70;;;;;;;;;;4969501;28;20205;-40
2022/10/01 13:29:00;;;;;;;1.20;1.10;;;;;;;;;;4973027;28;20264;-41
2022/10/01 13:31:39;;;;;;;0.90;0.90;;;;;;;;;;4967493;28;20239;-38
2022/10/01 13:34:21;;;;;;;0.80;0.80;;;;;;;;;;4958114;28;20217;-41
2022/10/01 13:36:49;;;;;;;1.33;0.80;;;;;;;;;;4977773;28;20237;-41
2022/10/01 13:39:22;;;;;;;1.07;0.90;;;;;;;;;;4972801;28;20201;-42
2022/10/01 13:41:49;;;;;;;0.80;0.80;;;;;;;;;;4968868;28;20217;-39
2022/10/01 13:44:22;;;;;;;1.13;0.87;;;;;;;;;;4972283;28;20205;-37
2022/10/01 13:46:51;;;;;;;0.93;0.80;;;;;;;;;;4965245;28;20219;-39
2022/10/01 13:49:23;;;;;;;2.07;0.80;;;;;;;;;;4961117;28;20242;-42
2022/10/01 13:51:51;;;;;;;0.90;0.90;;;;;;;;;;4986168;28;20207;-39
2022/10/01 13:54:23;;;;;;;1.47;0.77;;;;;;;;;;4992385;28;20242;-39
2022/10/01 13:56:50;;;;;;;1.00;0.70;;;;;;;;;;4976998;28;20216;-42
2022/10/01 13:59:34;;;;;;;0.70;0.70;;;;;;;;;;4959206;28;20206;-41
2022/10/01 14:02:02;;;;;;;1.17;0.87;;;;;;;;;;4977055;28;20205;-39
2022/10/01 14:04:34;;;;;;;1.13;0.70;;;;;;;;;;4964442;28;20200;-38
2022/10/01 14:07:04;;;;;;;4.07;3.70;;;;;;;;;;4992087;28;20200;-39
2022/10/01 14:09:34;;;;;;;0.70;0.70;;;;;;;;;;4992125;28;20759;-42
2022/10/01 14:17:44;;;;;;;0.63;0.60;;;;;;;;;;4956361;28;20318;-42
2022/10/01 14:20:18;;;;;;;0.70;0.70;;;;;;;;;;4980151;28;20234;-41
2022/10/01 14:22:56;;;;;;;0.80;0.67;;;;;;;;;;4973266;28;20200;-40
2022/10/01 14:25:29;;;;;;;0.60;0.60;;;;;;;;;;4972797;28;20208;-41
2022/10/01 14:28:06;;;;;;;1.43;0.80;;;;;;;;;;4965901;28;20232;-37
2022/10/01 14:30:38;;;;;;;0.47;0.47;;;;;;;;;;4973932;28;20224;-37
2022/10/01 14:33:20;;;;;;;1.67;0.50;;;;;;;;;;4969705;28;20259;-41
2022/10/01 14:35:53;;;;;;;0.70;0.70;;;;;;;;;;4953958;28;20227;-42
2022/10/01 14:38:23;;;;;;;8.27;3.70;;;;;;;;;;4992254;28;20207;-42
2022/10/01 14:40:54;;;;;;;2.70;1.60;;;;;;;;;;4985782;28;20228;-41
2022/10/01 14:43:22;;;;;;;2.47;1.13;;;;;;;;;;4963068;28;20203;-42
2022/10/01 14:45:54;;;;;;;1.87;1.20;;;;;;;;;;4984751;28;20206;-42
2022/10/01 14:48:22;;;;;;;3.40;1.47;;;;;;;;;;4967390;28;20650;-39
2022/10/01 14:50:52;;;;;;;1.93;0.90;;;;;;;;;;4980476;28;20227;-38
2022/10/01 14:53:20;;;;;;;0.93;0.83;;;;;;;;;;4972107;28;20208;-42
2022/10/01 14:55:48;;;;;;;0.57;0.57;;;;;;;;;;4964023;28;20212;-40
2022/10/01 14:58:20;;;;;;;0.73;0.60;;;;;;;;;;4973753;28;20211;-39
2022/10/01 15:00:49;;;;;;;0.50;0.50;;;;;;;;;;4991071;28;20307;-40
2022/10/01 15:03:17;;;;;;;0.57;0.57;;;;;;;;;;4968415;28;20213;-36
2022/10/01 15:05:44;;;;;;;1.07;0.70;;;;;;;;;;4979886;28;20204;-42
2022/10/01 15:08:12;;;;;;;1.90;0.63;;;;;;;;;;4973364;28;20228;-43
2022/10/01 15:10:41;;;;;;;0.40;0.40;;;;;;;;;;4970254;28;20236;-39
2022/10/01 15:13:11;;;;;;;0.67;0.67;;;;;;;;;;4978312;28;20241;-39
2022/10/01 15:15:40;;;;;;;1.50;0.60;;;;;;;;;;4971596;28;20197;-42
2022/10/01 15:18:08;;;;;;;0.60;0.60;;;;;;;;;;4967032;28;20304;-39